Time;durP1;ratioP1;P1;durP2;ratioP2;P2;SDS_P1;SDS_P2;PMS_P1;PMS_P2;Temp;Humidity;BMP_temperature;BMP_pressure;BME280_temperature;BME280_humidity;BME280_pressure;Samples;Min_cycle;Max_cycle;Signal;HPM_P1;HPM_P2
2021/05/07 00:00:06;;;;;;;1.15;1.02;;;10.00;99.90;;;;;;5092533;28;20211;-44
2021/05/07 00:02:33;;;;;;;2.65;1.30;;;10.00;99.90;;;;;;5092588;28;20286;-47
2021/05/07 00:05:00;;;;;;;1.73;1.00;;;10.00;99.90;;;;;;5092169;28;20206;-47
2021/05/07 00:07:29;;;;;;;1.83;1.20;;;10.00;99.90;;;;;;5092070;28;20272;-44
2021/05/07 00:09:57;;;;;;;1.45;0.90;;;10.00;99.90;;;;;;5092201;28;20604;-43
2021/05/07 00:12:24;;;;;;;1.90;1.15;;;10.00;99.90;;;;;;5092429;28;20210;-44
2021/05/07 00:14:51;;;;;;;3.72;1.10;;;10.00;99.90;;;;;;5092049;28;20219;-46
2021/05/07 00:17:18;;;;;;;0.80;0.80;;;10.00;99.90;;;;;;5092051;28;20297;-43
2021/05/07 00:19:45;;;;;;;2.22;1.15;;;9.90;99.90;;;;;;5078526;28;20215;-43
2021/05/07 00:22:12;;;;;;;2.05;1.08;;;10.00;99.90;;;;;;5071763;28;20542;-47
2021/05/07 00:24:40;;;;;;;2.42;0.90;;;9.90;99.90;;;;;;5075687;28;20239;-45
2021/05/07 00:27:07;;;;;;;4.47;1.20;;;9.90;99.90;;;;;;5092104;28;20289;-44
2021/05/07 00:29:35;;;;;;;1.02;0.93;;;9.90;99.90;;;;;;5091919;28;20223;-46
2021/05/07 00:32:01;;;;;;;1.13;0.88;;;9.90;99.90;;;;;;5091897;28;20206;-44
2021/05/07 00:34:29;;;;;;;1.30;0.93;;;9.90;99.90;;;;;;5091975;28;20210;-46
2021/05/07 00:36:56;;;;;;;0.80;0.80;;;9.90;99.90;;;;;;5091726;28;20256;-48
2021/05/07 00:39:22;;;;;;;1.88;1.13;;;9.90;99.90;;;;;;5091983;28;20232;-48
2021/05/07 00:41:50;;;;;;;1.38;0.70;;;9.90;99.90;;;;;;5091786;28;20256;-46
2021/05/07 00:44:17;;;;;;;1.33;0.80;;;9.80;99.90;;;;;;5091837;28;20297;-44
2021/05/07 00:46:45;;;;;;;2.58;0.90;;;9.90;99.90;;;;;;5091701;28;20687;-44
2021/05/07 00:49:13;;;;;;;2.38;1.10;;;9.90;99.90;;;;;;5091866;28;20357;-45
2021/05/07 00:51:40;;;;;;;1.73;0.80;;;9.90;99.90;;;;;;5091615;28;20234;-46
2021/05/07 00:54:07;;;;;;;1.38;1.05;;;9.90;99.90;;;;;;5091681;28;20253;-43
2021/05/07 00:56:34;;;;;;;1.77;0.70;;;9.90;99.90;;;;;;5091330;28;20680;-45
2021/05/07 00:59:02;;;;;;;1.17;1.08;;;9.90;99.90;;;;;;5091469;28;20664;-47
2021/05/07 01:01:31;;;;;;;2.00;1.10;;;9.90;99.90;;;;;;5092846;28;20229;-46
2021/05/07 01:03:59;;;;;;;0.80;0.80;;;9.80;99.90;;;;;;5095512;28;20256;-44
2021/05/07 01:06:26;;;;;;;1.00;0.90;;;9.80;99.90;;;;;;5095861;28;20297;-51
2021/05/07 01:08:53;;;;;;;1.65;0.75;;;9.80;99.90;;;;;;5095613;28;20649;-52
2021/05/07 01:11:21;;;;;;;2.17;0.98;;;9.80;99.90;;;;;;5095441;28;20598;-50
2021/05/07 01:13:48;;;;;;;1.67;0.77;;;9.80;99.90;;;;;;5095488;28;20206;-48
2021/05/07 01:16:15;;;;;;;3.08;0.90;;;9.80;99.90;;;;;;5095334;28;20294;-49
2021/05/07 01:18:42;;;;;;;2.38;0.70;;;9.70;99.90;;;;;;5095180;28;20198;-51
2021/05/07 01:21:11;;;;;;;2.22;0.98;;;9.70;99.90;;;;;;5095133;28;20704;-47
2021/05/07 01:23:38;;;;;;;1.10;0.95;;;9.70;99.90;;;;;;5095276;28;20266;-48
2021/05/07 01:26:05;;;;;;;1.73;0.98;;;9.70;99.90;;;;;;5095167;28;20210;-46
2021/05/07 01:28:33;;;;;;;0.90;0.88;;;9.70;99.90;;;;;;5095200;28;20335;-46
2021/05/07 01:31:02;;;;;;;2.08;0.90;;;9.70;99.90;;;;;;5095178;28;20297;-50
2021/05/07 01:33:29;;;;;;;1.50;0.95;;;9.70;99.90;;;;;;5095312;28;20203;-49
2021/05/07 01:35:56;;;;;;;3.15;1.25;;;9.70;99.90;;;;;;5095073;28;20252;-50
2021/05/07 01:38:24;;;;;;;1.98;0.90;;;9.70;99.90;;;;;;5095095;28;20206;-47
2021/05/07 01:40:52;;;;;;;2.33;0.95;;;9.70;99.90;;;;;;5095005;28;20271;-46
2021/05/07 01:43:20;;;;;;;1.90;1.10;;;9.70;99.90;;;;;;5094888;28;20250;-47
2021/05/07 01:45:48;;;;;;;1.70;1.02;;;9.70;99.90;;;;;;5094743;28;20313;-46
2021/05/07 01:48:16;;;;;;;1.98;1.08;;;9.60;99.90;;;;;;5094621;28;20704;-47
2021/05/07 01:50:45;;;;;;;1.88;0.93;;;9.60;99.90;;;;;;5094722;28;20267;-47
2021/05/07 01:53:12;;;;;;;2.53;1.10;;;9.60;99.90;;;;;;5094740;28;20202;-46
2021/05/07 01:55:41;;;;;;;1.60;1.10;;;9.60;99.90;;;;;;5094603;28;20301;-49
2021/05/07 01:58:11;;;;;;;2.78;1.20;;;9.50;99.90;;;;;;5094488;28;20242;-48
2021/05/07 02:00:39;;;;;;;1.52;1.10;;;9.50;99.90;;;;;;5094742;28;20242;-44
2021/05/07 02:03:07;;;;;;;2.13;1.27;;;9.50;99.90;;;;;;5094574;28;20242;-46
2021/05/07 02:05:34;;;;;;;3.58;1.33;;;9.50;99.90;;;;;;5094444;28;20746;-46
2021/05/07 02:08:02;;;;;;;2.65;1.25;;;9.50;99.90;;;;;;5094367;28;20222;-45
2021/05/07 02:10:31;;;;;;;2.05;1.38;;;9.40;99.90;;;;;;5094670;28;20302;-45
2021/05/07 02:13:01;;;;;;;1.55;1.25;;;9.50;99.90;;;;;;5094030;28;20309;-46
2021/05/07 02:15:28;;;;;;;1.58;1.48;;;9.50;99.90;;;;;;5094818;28;20625;-47
2021/05/07 02:17:55;;;;;;;2.35;1.65;;;9.50;99.90;;;;;;5094621;28;20227;-45
2021/05/07 02:20:24;;;;;;;1.88;1.30;;;9.60;99.90;;;;;;5094201;28;20212;-48
2021/05/07 02:22:51;;;;;;;2.60;1.55;;;9.60;99.90;;;;;;5093934;28;20252;-48
2021/05/07 02:25:20;;;;;;;2.90;1.40;;;9.50;99.90;;;;;;5094056;28;20239;-47
2021/05/07 02:27:47;;;;;;;3.28;1.45;;;9.40;99.90;;;;;;5094299;28;20234;-50
2021/05/07 02:30:19;;;;;;;2.97;1.58;;;9.40;99.90;;;;;;5094205;28;20306;-49
2021/05/07 02:32:46;;;;;;;2.25;1.55;;;9.40;99.90;;;;;;5094218;28;20295;-50
2021/05/07 02:35:14;;;;;;;4.97;1.45;;;9.40;99.90;;;;;;5094205;28;20214;-46
2021/05/07 02:37:41;;;;;;;2.10;1.52;;;9.40;99.90;;;;;;5094060;28;20281;-52
2021/05/07 02:40:10;;;;;;;4.55;1.30;;;9.40;99.90;;;;;;5094129;28;20213;-49
2021/05/07 02:42:37;;;;;;;2.42;1.30;;;9.40;99.90;;;;;;5094123;28;20245;-42
2021/05/07 02:45:06;;;;;;;1.67;1.15;;;9.40;99.90;;;;;;5093822;28;20250;-42
2021/05/07 02:47:35;;;;;;;1.48;1.05;;;9.40;99.90;;;;;;5093797;28;20632;-41
2021/05/07 02:50:03;;;;;;;1.35;1.13;;;9.50;99.90;;;;;;5093728;28;20230;-41
2021/05/07 02:52:30;;;;;;;7.70;3.17;;;9.50;99.90;;;;;;5093749;28;20289;-41
2021/05/07 02:54:57;;;;;;;2.47;1.00;;;9.50;99.90;;;;;;5093856;28;20245;-41
2021/05/07 02:57:24;;;;;;;1.95;1.70;;;9.50;99.90;;;;;;5093687;28;20290;-41
2021/05/07 02:59:51;;;;;;;3.22;1.55;;;9.50;99.90;;;;;;5093419;28;20298;-51
2021/05/07 03:02:18;;;;;;;3.47;1.52;;;9.50;99.90;;;;;;5093522;28;20301;-42
2021/05/07 03:04:47;;;;;;;3.95;1.77;;;9.40;99.90;;;;;;5093581;28;20234;-45
2021/05/07 03:07:14;;;;;;;4.00;1.70;;;9.50;99.90;;;;;;5093378;28;20630;-43
2021/05/07 03:09:41;;;;;;;4.75;1.58;;;9.50;99.90;;;;;;5093525;28;20230;-42
2021/05/07 03:12:08;;;;;;;4.95;1.45;;;9.50;99.90;;;;;;5093613;28;20677;-45
2021/05/07 03:14:36;;;;;;;2.97;1.40;;;9.40;99.90;;;;;;5093484;28;20211;-44
2021/05/07 03:17:03;;;;;;;2.72;1.98;;;9.30;99.90;;;;;;5093422;28;20243;-48
2021/05/07 03:19:30;;;;;;;6.00;2.35;;;9.30;99.90;;;;;;5093295;28;20205;-47
2021/05/07 03:21:58;;;;;;;2.38;1.80;;;9.20;99.90;;;;;;5093304;28;20207;-43
2021/05/07 03:24:25;;;;;;;3.15;1.40;;;9.10;99.90;;;;;;5092783;28;20278;-42
2021/05/07 03:26:51;;;;;;;2.35;1.88;;;9.00;99.90;;;;;;5092940;28;20203;-42
2021/05/07 03:29:19;;;;;;;4.22;1.50;;;9.00;99.90;;;;;;5093080;28;20314;-42
2021/05/07 03:31:45;;;;;;;1.80;1.20;;;9.00;99.90;;;;;;5092856;28;20751;-42
2021/05/07 03:34:14;;;;;;;2.20;1.23;;;8.90;99.90;;;;;;5093156;28;20237;-41
2021/05/07 03:36:41;;;;;;;1.63;1.00;;;8.90;99.90;;;;;;5092963;28;20209;-43
2021/05/07 03:39:10;;;;;;;2.17;1.40;;;8.90;99.90;;;;;;5093118;28;20309;-43
2021/05/07 03:41:37;;;;;;;2.35;1.55;;;8.90;99.90;;;;;;5092993;28;20313;-46
2021/05/07 03:44:05;;;;;;;2.90;1.50;;;8.90;99.90;;;;;;5092886;28;20293;-44
2021/05/07 03:46:32;;;;;;;1.77;1.33;;;8.80;99.90;;;;;;5092690;28;20238;-44
2021/05/07 03:48:59;;;;;;;3.25;1.30;;;8.80;99.90;;;;;;5092452;28;20364;-49
2021/05/07 03:51:26;;;;;;;4.10;1.10;;;8.80;99.90;;;;;;5092739;28;20210;-45
2021/05/07 03:53:53;;;;;;;0.80;0.80;;;8.80;99.90;;;;;;5092706;28;20239;-46
2021/05/07 03:56:21;;;;;;;1.50;0.70;;;8.80;99.90;;;;;;5092540;28;20663;-47
2021/05/07 03:58:48;;;;;;;2.42;1.33;;;8.70;99.90;;;;;;5092359;28;20242;-49
2021/05/07 04:01:15;;;;;;;1.10;1.00;;;8.70;99.90;;;;;;5092174;28;20245;-47
2021/05/07 04:03:41;;;;;;;2.17;1.17;;;8.70;99.90;;;;;;5092123;28;20264;-46
2021/05/07 04:06:15;;;;;;;3.50;1.00;;;8.70;99.90;;;;;;5091974;28;20226;-48
2021/05/07 04:08:43;;;;;;;1.80;1.45;;;8.60;99.90;;;;;;5092150;28;20313;-44
2021/05/07 04:11:18;;;;;;;3.03;1.48;;;8.60;99.90;;;;;;5092309;28;20218;-44
2021/05/07 04:13:46;;;;;;;1.23;0.90;;;8.60;99.90;;;;;;5092178;28;20241;-44
2021/05/07 04:16:13;;;;;;;3.08;1.05;;;8.60;99.90;;;;;;5092344;28;20293;-47
2021/05/07 04:18:42;;;;;;;1.60;1.17;;;8.60;99.90;;;;;;5092509;28;20211;-43
2021/05/07 04:21:09;;;;;;;0.85;0.80;;;8.60;99.90;;;;;;5092135;28;20302;-45
2021/05/07 04:23:36;;;;;;;2.35;0.90;;;8.60;99.90;;;;;;5092043;28;20234;-47
2021/05/07 04:26:03;;;;;;;1.85;1.45;;;8.60;99.90;;;;;;5092076;28;20270;-47
2021/05/07 04:28:31;;;;;;;1.42;1.20;;;8.60;99.90;;;;;;5092237;28;20332;-45
2021/05/07 04:30:58;;;;;;;2.35;1.75;;;8.60;99.90;;;;;;5092246;28;20214;-44
2021/05/07 04:33:25;;;;;;;3.03;1.35;;;8.60;99.90;;;;;;5092080;28;20665;-43
2021/05/07 04:35:52;;;;;;;1.60;1.10;;;8.60;99.90;;;;;;5091935;28;20672;-42
2021/05/07 04:38:19;;;;;;;1.45;1.35;;;8.60;99.90;;;;;;5092185;28;20214;-42
2021/05/07 04:40:46;;;;;;;3.13;1.42;;;8.60;99.90;;;;;;5092156;28;20644;-42
2021/05/07 04:43:13;;;;;;;1.63;1.45;;;8.50;99.90;;;;;;5092120;28;20692;-41
2021/05/07 04:45:40;;;;;;;1.52;1.30;;;8.50;99.90;;;;;;5092280;28;20297;-46
2021/05/07 04:48:12;;;;;;;1.80;1.08;;;8.60;99.90;;;;;;5092605;28;20212;-47
2021/05/07 04:50:40;;;;;;;1.35;1.25;;;8.60;99.90;;;;;;5092150;28;20241;-48
2021/05/07 04:53:07;;;;;;;1.95;1.20;;;8.60;99.90;;;;;;5091875;28;20748;-43
2021/05/07 04:55:34;;;;;;;2.88;1.52;;;8.70;99.90;;;;;;5091999;28;20210;-44
2021/05/07 04:58:01;;;;;;;1.88;1.10;;;8.70;99.90;;;;;;5091693;28;20685;-46
2021/05/07 05:00:28;;;;;;;3.05;1.27;;;8.70;99.90;;;;;;5091758;28;20215;-46
2021/05/07 05:02:55;;;;;;;2.35;1.05;;;8.70;99.90;;;;;;5091708;28;20630;-44
2021/05/07 05:05:23;;;;;;;1.27;1.15;;;8.70;99.90;;;;;;5091562;28;20618;-45
2021/05/07 05:07:52;;;;;;;2.00;1.70;;;8.70;99.90;;;;;;5091651;28;20301;-44
2021/05/07 05:10:19;;;;;;;1.10;1.00;;;8.70;99.90;;;;;;5091983;28;20258;-44
2021/05/07 05:12:46;;;;;;;1.48;1.38;;;8.70;99.90;;;;;;5091866;28;20358;-44
2021/05/07 05:15:14;;;;;;;2.67;1.23;;;8.70;99.90;;;;;;5091807;28;20301;-46
2021/05/07 05:17:42;;;;;;;1.77;1.00;;;8.60;99.90;;;;;;5091803;28;20234;-44
2021/05/07 05:20:10;;;;;;;0.90;0.90;;;8.50;99.90;;;;;;5090463;28;20281;-44
2021/05/07 05:22:38;;;;;;;1.13;1.05;;;8.40;99.90;;;;;;5091985;28;20261;-47
2021/05/07 05:25:06;;;;;;;1.70;1.50;;;8.40;99.90;;;;;;5091588;28;20249;-44
2021/05/07 05:27:34;;;;;;;1.40;1.30;;;8.40;99.90;;;;;;5091939;28;20206;-46
2021/05/07 05:30:01;;;;;;;1.48;1.10;;;8.50;99.90;;;;;;5091619;28;20241;-46
2021/05/07 05:32:29;;;;;;;1.73;1.20;;;8.40;99.90;;;;;;5091917;28;20301;-46
2021/05/07 05:34:56;;;;;;;1.98;1.25;;;8.40;99.90;;;;;;5091569;28;20206;-46
2021/05/07 05:37:24;;;;;;;1.20;1.10;;;8.40;99.90;;;;;;5091778;28;20301;-48
2021/05/07 05:39:52;;;;;;;1.23;1.13;;;8.40;99.90;;;;;;5091585;28;20232;-44
2021/05/07 05:42:39;;;;;;;1.38;1.27;;;8.50;99.90;;;;;;5091782;28;20214;-44
2021/05/07 05:45:07;;;;;;;2.17;1.10;;;8.50;99.90;;;;;;5091568;28;20297;-44
2021/05/07 05:47:34;;;;;;;1.30;1.20;;;8.60;99.90;;;;;;5091435;28;20206;-46
2021/05/07 05:50:01;;;;;;;1.42;1.33;;;8.60;99.90;;;;;;5094892;28;20231;-45
2021/05/07 05:52:28;;;;;;;1.48;1.38;;;8.70;99.90;;;;;;5095233;28;20238;-44
2021/05/07 05:54:55;;;;;;;1.40;1.30;;;8.70;99.90;;;;;;5095066;28;20271;-44
2021/05/07 05:57:22;;;;;;;2.15;1.15;;;8.70;99.90;;;;;;5087568;28;20211;-44
2021/05/07 05:59:49;;;;;;;1.63;1.30;;;8.70;99.90;;;;;;5083568;28;20297;-47
2021/05/07 06:02:17;;;;;;;1.50;1.40;;;8.60;99.90;;;;;;5095081;28;20238;-45
2021/05/07 06:04:45;;;;;;;1.70;1.38;;;8.70;99.90;;;;;;5094834;28;20207;-44
2021/05/07 06:07:12;;;;;;;1.50;1.40;;;8.70;99.90;;;;;;5094768;28;20245;-50
2021/05/07 06:09:39;;;;;;;1.23;1.13;;;8.80;99.90;;;;;;5094725;28;20222;-47
2021/05/07 06:12:08;;;;;;;1.77;1.48;;;8.80;99.90;;;;;;5094835;28;20703;-44
2021/05/07 06:14:35;;;;;;;2.70;1.30;;;8.80;99.90;;;;;;5094400;28;20210;-45
2021/05/07 06:17:08;;;;;;;1.52;1.42;;;8.80;99.90;;;;;;5094350;28;20210;-45
2021/05/07 06:19:36;;;;;;;1.58;1.48;;;8.80;99.90;;;;;;5094365;28;20622;-46
2021/05/07 06:22:03;;;;;;;1.50;1.40;;;8.80;99.90;;;;;;5094744;28;20491;-48
2021/05/07 06:24:31;;;;;;;1.10;1.00;;;8.70;99.90;;;;;;5094314;28;20333;-45
2021/05/07 06:26:58;;;;;;;1.08;0.98;;;8.70;99.90;;;;;;5094315;28;20210;-47
2021/05/07 06:29:26;;;;;;;1.63;1.33;;;8.60;99.90;;;;;;5094398;28;20320;-44
2021/05/07 06:31:53;;;;;;;1.73;1.38;;;8.50;99.90;;;;;;5094344;28;20309;-47
2021/05/07 06:34:21;;;;;;;3.00;1.00;;;8.40;99.90;;;;;;5094155;28;20627;-49
2021/05/07 06:36:48;;;;;;;1.35;1.25;;;8.30;99.90;;;;;;5093980;28;20353;-44
2021/05/07 06:39:15;;;;;;;1.88;1.60;;;8.30;99.90;;;;;;5093943;28;20230;-44
2021/05/07 06:41:42;;;;;;;3.53;2.40;;;8.20;99.90;;;;;;5093700;28;20229;-42
2021/05/07 06:44:09;;;;;;;1.45;1.35;;;8.10;99.90;;;;;;5093744;28;20249;-44
2021/05/07 06:46:37;;;;;;;1.30;1.20;;;8.00;99.90;;;;;;5093674;28;20226;-45
2021/05/07 06:49:04;;;;;;;2.58;1.88;;;8.00;99.90;;;;;;5093692;28;20291;-44
2021/05/07 06:51:33;;;;;;;1.50;1.40;;;7.90;99.90;;;;;;5093819;28;20211;-43
2021/05/07 06:54:00;;;;;;;2.90;1.30;;;7.90;99.90;;;;;;5093295;28;20218;-46
2021/05/07 06:56:27;;;;;;;1.40;1.25;;;7.90;99.90;;;;;;5093172;28;20730;-48
2021/05/07 06:58:54;;;;;;;1.55;1.45;;;7.90;99.90;;;;;;5093408;28;20211;-45
2021/05/07 07:01:21;;;;;;;1.83;1.23;;;7.90;99.90;;;;;;5093291;28;20293;-45
2021/05/07 07:03:49;;;;;;;1.52;0.98;;;7.90;99.90;;;;;;5093296;28;20234;-44
2021/05/07 07:06:16;;;;;;;1.10;0.93;;;7.90;99.90;;;;;;5092957;28;20696;-45
2021/05/07 07:08:43;;;;;;;0.80;0.60;;;7.80;99.90;;;;;;5093009;28;20258;-48
2021/05/07 07:11:10;;;;;;;0.85;0.85;;;7.70;99.90;;;;;;5093370;28;20289;-46
2021/05/07 07:13:37;;;;;;;1.15;0.60;;;7.60;99.90;;;;;;5092963;28;20234;-43
2021/05/07 07:16:05;;;;;;;0.70;0.60;;;7.50;99.90;;;;;;5092624;28;20681;-44
2021/05/07 07:18:33;;;;;;;2.35;0.68;;;7.40;99.90;;;;;;5092669;28;20295;-44
2021/05/07 07:21:01;;;;;;;0.70;0.70;;;7.30;99.90;;;;;;5092670;28;20214;-43
2021/05/07 07:23:28;;;;;;;1.85;0.70;;;7.30;99.90;;;;;;5092497;28;20291;-48
2021/05/07 07:25:55;;;;;;;0.88;0.70;;;7.20;99.90;;;;;;5092497;28;20206;-47
2021/05/07 07:28:22;;;;;;;0.88;0.52;;;7.20;99.90;;;;;;5092602;28;20210;-47
2021/05/07 07:30:49;;;;;;;3.92;1.02;;;7.10;99.90;;;;;;5092357;28;20286;-45
2021/05/07 07:33:16;;;;;;;0.80;0.70;;;7.10;99.90;;;;;;5092492;28;20210;-49
2021/05/07 07:35:43;;;;;;;1.00;1.00;;;7.10;99.90;;;;;;5092309;28;20298;-49
2021/05/07 07:38:11;;;;;;;1.75;1.25;;;7.10;99.90;;;;;;5092641;28;20289;-46
2021/05/07 07:40:38;;;;;;;0.68;0.68;;;7.20;99.90;;;;;;5092206;28;20207;-45
2021/05/07 07:43:05;;;;;;;1.77;1.13;;;7.10;99.90;;;;;;5092259;28;20207;-47
2021/05/07 07:45:32;;;;;;;2.60;0.82;;;7.10;99.90;;;;;;5092056;28;20206;-47
2021/05/07 07:47:59;;;;;;;1.95;0.63;;;7.00;99.90;;;;;;5092202;28;20215;-47
2021/05/07 07:50:26;;;;;;;0.73;0.73;;;7.00;99.90;;;;;;5092570;28;20238;-48
2021/05/07 07:52:53;;;;;;;1.42;0.73;;;7.00;99.90;;;;;;5092652;28;20636;-45
2021/05/07 07:55:21;;;;;;;1.40;1.15;;;7.10;99.90;;;;;;5092501;28;20233;-46
2021/05/07 07:57:48;;;;;;;1.45;0.70;;;7.20;99.90;;;;;;5092207;28;20219;-46
2021/05/07 08:00:16;;;;;;;0.68;0.60;;;7.20;99.90;;;;;;5092323;28;20198;-46
2021/05/07 08:02:44;;;;;;;0.60;0.60;;;7.30;99.90;;;;;;5092500;28;20210;-46
2021/05/07 08:05:12;;;;;;;0.77;0.70;;;7.50;99.90;;;;;;5092225;28;20207;-48
2021/05/07 08:07:40;;;;;;;2.70;0.95;;;7.70;99.90;;;;;;5092236;28;20677;-47
2021/05/07 08:10:08;;;;;;;0.52;0.52;;;7.80;99.90;;;;;;5092369;28;20280;-46
2021/05/07 08:12:36;;;;;;;1.90;0.70;;;8.00;99.90;;;;;;5091657;28;20665;-49
2021/05/07 08:15:05;;;;;;;1.25;0.65;;;8.10;99.90;;;;;;5092201;28;20722;-45
2021/05/07 08:17:32;;;;;;;1.67;0.60;;;8.20;99.90;;;;;;5092143;28;20278;-51
2021/05/07 08:20:00;;;;;;;1.33;0.88;;;8.20;99.90;;;;;;5092255;28;20370;-47
2021/05/07 08:22:27;;;;;;;0.82;0.70;;;8.30;99.90;;;;;;5092204;28;20206;-49
2021/05/07 08:24:54;;;;;;;0.75;0.73;;;8.40;99.90;;;;;;5091658;28;20346;-46
2021/05/07 08:27:22;;;;;;;1.17;0.77;;;8.50;99.90;;;;;;5091831;28;20213;-45
2021/05/07 08:29:51;;;;;;;0.70;0.65;;;8.80;99.90;;;;;;5091915;28;20233;-47
2021/05/07 08:32:18;;;;;;;0.88;0.80;;;9.00;99.90;;;;;;5091970;28;20633;-48
2021/05/07 08:34:45;;;;;;;0.85;0.70;;;9.20;99.90;;;;;;5092041;28;20268;-50
2021/05/07 08:37:13;;;;;;;0.90;0.90;;;9.50;99.90;;;;;;5091806;28;20322;-47
2021/05/07 08:39:40;;;;;;;1.48;0.90;;;9.60;99.90;;;;;;5091798;28;20255;-50
2021/05/07 08:42:09;;;;;;;0.80;0.80;;;9.70;99.90;;;;;;5091736;28;20318;-48
2021/05/07 08:44:36;;;;;;;1.35;1.25;;;9.60;99.90;;;;;;5091425;28;20244;-48
2021/05/07 08:47:04;;;;;;;2.80;1.13;;;9.50;99.90;;;;;;5091502;28;20242;-47
2021/05/07 08:49:31;;;;;;;0.77;0.77;;;9.40;99.90;;;;;;5091535;28;20324;-47
2021/05/07 08:51:58;;;;;;;1.30;0.90;;;9.50;99.90;;;;;;5091630;28;20681;-47
2021/05/07 08:54:27;;;;;;;1.25;0.75;;;9.50;99.90;;;;;;5091512;28;20206;-49
2021/05/07 08:56:55;;;;;;;1.58;0.90;;;9.60;99.90;;;;;;5091373;28;20308;-47
2021/05/07 08:59:22;;;;;;;1.15;0.77;;;9.60;99.90;;;;;;5091736;28;20206;-49
2021/05/07 09:01:51;;;;;;;0.85;0.85;;;9.60;99.90;;;;;;5091806;28;20214;-47
2021/05/07 09:04:21;;;;;;;0.88;0.88;;;9.70;99.90;;;;;;5091678;28;20210;-48
2021/05/07 09:06:50;;;;;;;1.25;1.02;;;9.80;99.90;;;;;;5092087;28;20268;-51
2021/05/07 09:09:22;;;;;;;1.05;1.00;;;9.70;99.90;;;;;;5091390;28;20251;-45
2021/05/07 09:11:50;;;;;;;2.22;1.20;;;9.70;99.90;;;;;;5091830;28;20242;-45
2021/05/07 09:14:17;;;;;;;1.15;0.90;;;9.80;99.90;;;;;;5091505;28;20207;-46
2021/05/07 09:16:55;;;;;;;1.10;1.00;;;9.80;99.90;;;;;;5091327;28;20226;-49
2021/05/07 09:19:25;;;;;;;1.52;1.17;;;9.80;99.90;;;;;;5091459;28;20665;-47
2021/05/07 09:21:53;;;;;;;0.70;0.70;;;9.80;99.90;;;;;;5091619;28;20217;-47
2021/05/07 09:24:30;;;;;;;0.75;0.75;;;9.90;99.90;;;;;;5093967;28;20606;-47
2021/05/07 09:26:58;;;;;;;0.82;0.80;;;9.90;99.90;;;;;;5095425;28;20276;-46
2021/05/07 09:29:27;;;;;;;1.05;1.02;;;9.90;99.90;;;;;;5095105;28;20219;-50
2021/05/07 09:31:55;;;;;;;1.60;1.50;;;9.80;99.90;;;;;;5094947;28;20237;-45
2021/05/07 09:34:23;;;;;;;2.35;1.15;;;9.70;99.90;;;;;;5095022;28;20240;-45
2021/05/07 09:36:51;;;;;;;1.10;1.00;;;9.50;99.90;;;;;;5094909;28;20685;-47
2021/05/07 09:39:21;;;;;;;1.70;1.25;;;9.30;99.90;;;;;;5095158;28;20569;-47
2021/05/07 09:41:50;;;;;;;1.58;1.05;;;9.10;99.90;;;;;;5094943;28;20242;-48
2021/05/07 09:44:20;;;;;;;3.55;1.58;;;9.00;99.90;;;;;;5094729;28;20215;-48
2021/05/07 09:46:47;;;;;;;3.03;1.70;;;9.00;99.90;;;;;;5094866;28;20634;-47
2021/05/07 09:49:26;;;;;;;4.43;1.92;;;9.00;99.90;;;;;;5094870;28;20264;-49
2021/05/07 09:51:54;;;;;;;3.70;2.25;;;9.20;99.90;;;;;;5094958;28;20238;-47
2021/05/07 09:54:21;;;;;;;1.88;1.77;;;9.20;99.90;;;;;;5094669;28;20289;-50
2021/05/07 09:56:49;;;;;;;2.72;1.88;;;9.30;99.90;;;;;;5094911;28;20242;-47
2021/05/07 09:59:18;;;;;;;3.13;2.10;;;9.40;99.90;;;;;;5094705;28;20248;-48
2021/05/07 10:01:47;;;;;;;2.80;2.53;;;9.50;99.90;;;;;;5094813;28;20285;-46
2021/05/07 10:04:16;;;;;;;3.15;2.30;;;9.70;99.90;;;;;;5095144;28;20206;-49
2021/05/07 10:06:44;;;;;;;2.55;2.33;;;9.90;99.90;;;;;;5094625;28;20203;-48
2021/05/07 10:09:22;;;;;;;2.67;2.42;;;10.10;99.90;;;;;;5094538;28;20321;-48
2021/05/07 10:11:50;;;;;;;3.10;2.80;;;10.30;99.90;;;;;;5094480;28;20471;-45
2021/05/07 10:14:19;;;;;;;5.03;3.58;;;10.60;99.90;;;;;;5094251;28;20253;-47
2021/05/07 10:16:46;;;;;;;4.68;3.17;;;10.80;99.90;;;;;;5093922;28;20293;-49
2021/05/07 10:19:15;;;;;;;3.20;3.00;;;11.10;99.90;;;;;;5094010;28;20234;-47
2021/05/07 10:21:44;;;;;;;4.20;3.90;;;11.40;99.90;;;;;;5093927;28;20210;-47
2021/05/07 10:24:14;;;;;;;3.83;3.53;;;11.50;99.90;;;;;;5094279;28;20241;-48
2021/05/07 10:26:42;;;;;;;4.90;4.50;;;11.40;99.90;;;;;;5094066;28;20283;-46
2021/05/07 10:29:20;;;;;;;5.13;4.72;;;11.30;99.90;;;;;;5094230;28;20218;-46
2021/05/07 10:31:48;;;;;;;4.63;4.32;;;11.30;99.90;;;;;;5094164;28;20215;-46
2021/05/07 10:34:16;;;;;;;4.72;4.43;;;11.50;99.90;;;;;;5093385;28;20210;-48
2021/05/07 10:37:01;;;;;;;4.78;4.40;;;11.80;99.90;;;;;;5094077;28;20225;-48
2021/05/07 10:39:29;;;;;;;4.25;3.85;;;12.20;99.90;;;;;;5093915;28;20218;-46
2021/05/07 10:42:00;;;;;;;4.53;3.78;;;12.00;99.90;;;;;;5093620;28;20217;-45
2021/05/07 10:44:40;;;;;;;7.93;4.65;;;11.70;99.90;;;;;;5093880;28;20238;-47
2021/05/07 10:47:09;;;;;;;4.72;4.32;;;11.40;99.90;;;;;;5093713;28;20684;-45
2021/05/07 10:49:38;;;;;;;4.43;4.07;;;11.20;99.90;;;;;;5093441;28;20226;-50
2021/05/07 10:52:09;;;;;;;5.38;4.88;;;11.20;99.90;;;;;;5093704;28;20221;-50
2021/05/07 10:54:38;;;;;;;5.30;4.90;;;11.10;99.90;;;;;;5093681;28;20210;-46
2021/05/07 10:57:17;;;;;;;5.55;5.05;;;11.10;99.90;;;;;;5093405;28;20215;-47
2021/05/07 10:59:52;;;;;;;4.95;4.60;;;11.30;99.90;;;;;;5093559;28;20260;-48
2021/05/07 11:02:19;;;;;;;4.68;4.28;;;11.70;99.90;;;;;;5093577;28;20212;-45
2021/05/07 11:04:48;;;;;;;5.35;4.00;;;12.10;99.90;;;;;;5093372;28;20217;-44
2021/05/07 11:07:25;;;;;;;4.78;4.38;;;12.30;99.30;;;;;;5093306;28;20242;-47
2021/05/07 11:10:00;;;;;;;4.97;4.60;;;12.40;98.30;;;;;;5093158;28;20309;-49
2021/05/07 11:12:27;;;;;;;4.40;4.10;;;12.50;98.40;;;;;;5093191;28;20234;-46
2021/05/07 11:14:54;;;;;;;4.28;3.90;;;12.70;98.00;;;;;;5093240;28;20242;-48
2021/05/07 11:17:22;;;;;;;4.47;4.07;;;12.70;96.90;;;;;;5093295;28;20289;-44
2021/05/07 11:19:50;;;;;;;4.05;3.75;;;12.70;96.50;;;;;;5093081;28;20234;-47
2021/05/07 11:22:24;;;;;;;4.30;3.90;;;12.60;95.90;;;;;;5093095;28;20292;-45
2021/05/07 11:24:51;;;;;;;4.30;3.90;;;12.40;95.80;;;;;;5092677;28;20321;-48
2021/05/07 11:27:21;;;;;;;3.72;3.42;;;12.20;95.80;;;;;;5093175;28;20632;-46
2021/05/07 11:29:49;;;;;;;4.43;4.03;;;12.20;95.90;;;;;;5092981;28;20227;-47
2021/05/07 11:32:18;;;;;;;3.72;3.47;;;12.30;95.80;;;;;;5092847;28;20293;-45
2021/05/07 11:34:51;;;;;;;4.38;4.03;;;12.50;96.00;;;;;;5092857;28;20404;-48
2021/05/07 11:37:19;;;;;;;3.80;3.50;;;12.70;95.70;;;;;;5092754;28;20301;-48
2021/05/07 11:39:58;;;;;;;4.18;3.88;;;12.90;95.50;;;;;;5092948;28;20275;-48
2021/05/07 11:42:29;;;;;;;4.03;3.63;;;13.00;95.30;;;;;;5092771;28;20217;-49
2021/05/07 11:44:56;;;;;;;3.65;3.35;;;13.20;94.70;;;;;;5092436;28;20218;-46
2021/05/07 11:47:28;;;;;;;4.32;3.95;;;13.50;94.50;;;;;;5091534;28;20559;-49
2021/05/07 11:49:56;;;;;;;3.00;2.65;;;13.50;93.40;;;;;;5092074;28;20223;-45
2021/05/07 11:52:34;;;;;;;3.97;3.63;;;13.40;93.20;;;;;;5092177;28;20568;-49
2021/05/07 11:55:01;;;;;;;3.58;3.28;;;13.20;91.90;;;;;;5092625;28;20516;-49
2021/05/07 11:57:30;;;;;;;4.28;3.88;;;12.90;93.10;;;;;;5092517;28;20206;-44
2021/05/07 11:59:58;;;;;;;3.83;3.53;;;12.60;93.20;;;;;;5092342;28;20204;-45
2021/05/07 12:02:26;;;;;;;3.75;3.30;;;12.30;93.90;;;;;;5092492;28;20203;-48
2021/05/07 12:05:00;;;;;;;3.28;2.97;;;12.20;93.80;;;;;;5092656;28;20210;-45
2021/05/07 12:07:29;;;;;;;2.63;2.42;;;11.90;93.00;;;;;;5092549;28;20571;-45
2021/05/07 12:09:58;;;;;;;2.60;2.40;;;11.70;91.90;;;;;;5092451;28;20269;-44
2021/05/07 12:12:27;;;;;;;4.50;3.30;;;11.50;91.90;;;;;;5092399;28;20207;-44
2021/05/07 12:15:13;;;;;;;3.33;2.97;;;11.40;92.20;;;;;;5092196;28;20222;-45
2021/05/07 12:17:42;;;;;;;4.13;3.83;;;11.20;92.80;;;;;;5092213;28;20218;-46
2021/05/07 12:20:11;;;;;;;4.78;3.67;;;11.10;93.60;;;;;;5092093;28;20206;-48
2021/05/07 12:22:38;;;;;;;3.80;3.50;;;11.30;94.00;;;;;;5091874;28;20635;-48
2021/05/07 12:25:15;;;;;;;3.22;2.92;;;11.60;92.80;;;;;;5091929;28;20329;-47
2021/05/07 12:27:46;;;;;;;3.20;3.00;;;11.80;92.20;;;;;;5092279;28;20297;-45
2021/05/07 12:30:23;;;;;;;3.95;3.60;;;12.00;91.90;;;;;;5092239;28;20233;-45
2021/05/07 12:32:55;;;;;;;5.43;3.85;;;12.10;91.50;;;;;;5091963;28;20728;-46
2021/05/07 12:35:23;;;;;;;3.45;3.15;;;12.00;91.20;;;;;;5091619;28;20210;-48
2021/05/07 12:37:50;;;;;;;4.07;3.63;;;11.90;91.90;;;;;;5091585;28;20317;-46
2021/05/07 12:40:17;;;;;;;4.53;4.13;;;11.90;91.90;;;;;;5091607;28;20242;-46
2021/05/07 12:42:44;;;;;;;3.70;3.40;;;11.90;91.80;;;;;;5091723;28;20241;-48
2021/05/07 12:45:12;;;;;;;3.88;3.58;;;12.00;92.10;;;;;;5091648;28;20315;-50
2021/05/07 12:47:39;;;;;;;3.50;3.13;;;12.00;91.50;;;;;;5092011;28;20980;-47
2021/05/07 12:50:07;;;;;;;4.60;3.50;;;12.00;91.10;;;;;;5091824;28;20223;-50
2021/05/07 12:52:36;;;;;;;3.33;3.00;;;11.90;91.10;;;;;;5091950;28;20210;-44
2021/05/07 12:55:04;;;;;;;3.17;2.88;;;11.90;89.70;;;;;;5091981;28;20207;-49
2021/05/07 12:57:32;;;;;;;3.67;3.13;;;11.80;90.40;;;;;;5093143;28;20237;-45
2021/05/07 12:59:59;;;;;;;3.72;3.22;;;11.80;90.50;;;;;;5094412;28;20199;-45